sensor_id;sensor_type;location;lat;lon;timestamp;pressure;altitude;pressure_sealevel;temperature;humidity
76590;BME280;65471;55.908;37.880;2023-05-29T00:00:48;100012.47;;;9.38;76.23
76590;BME280;65471;55.908;37.880;2023-05-29T00:03:15;100024.78;;;9.33;76.50
76590;BME280;65471;55.908;37.880;2023-05-29T00:05:42;100025.19;;;9.30;76.74
76590;BME280;65471;55.908;37.880;2023-05-29T00:08:08;100027.28;;;9.28;76.71
76590;BME280;65471;55.908;37.880;2023-05-29T00:10:35;100024.81;;;9.27;77.07
76590;BME280;65471;55.908;37.880;2023-05-29T00:13:03;100033.56;;;9.22;76.99
76590;BME280;65471;55.908;37.880;2023-05-29T00:15:33;100030.63;;;9.24;76.81
76590;BME280;65471;55.908;37.880;2023-05-29T00:18:00;100030.22;;;9.20;76.94
76590;BME280;65471;55.908;37.880;2023-05-29T00:20:28;100026.31;;;9.16;76.97
76590;BME280;65471;55.908;37.880;2023-05-29T00:22:55;100037.94;;;9.17;77.30
76590;BME280;65471;55.908;37.880;2023-05-29T00:25:22;100037.09;;;9.16;77.30
76590;BME280;65471;55.908;37.880;2023-05-29T00:27:49;100033.59;;;9.15;77.57
76590;BME280;65471;55.908;37.880;2023-05-29T00:30:16;100037.31;;;9.14;77.33
76590;BME280;65471;55.908;37.880;2023-05-29T00:32:43;100034.63;;;9.14;77.06
76590;BME280;65471;55.908;37.880;2023-05-29T00:35:10;100033.81;;;9.14;76.93
76590;BME280;65471;55.908;37.880;2023-05-29T00:37:37;100040.84;;;9.15;77.39
76590;BME280;65471;55.908;37.880;2023-05-29T00:40:05;100037.09;;;9.16;77.17
76590;BME280;65471;55.908;37.880;2023-05-29T00:42:33;100036.97;;;9.04;77.04
76590;BME280;65471;55.908;37.880;2023-05-29T00:45:00;100036.75;;;9.06;77.14
76590;BME280;65471;55.908;37.880;2023-05-29T00:47:31;100036.31;;;9.09;77.50
76590;BME280;65471;55.908;37.880;2023-05-29T00:49:58;100039.00;;;9.09;77.66
76590;BME280;65471;55.908;37.880;2023-05-29T00:52:26;100045.03;;;9.11;77.64
76590;BME280;65471;55.908;37.880;2023-05-29T00:54:54;100043.97;;;9.12;77.56
76590;BME280;65471;55.908;37.880;2023-05-29T00:57:22;100037.53;;;9.13;77.41
76590;BME280;65471;55.908;37.880;2023-05-29T00:59:50;100045.63;;;9.13;77.48
76590;BME280;65471;55.908;37.880;2023-05-29T01:02:18;100042.72;;;9.14;77.36
76590;BME280;65471;55.908;37.880;2023-05-29T01:04:45;100039.78;;;9.16;77.46
76590;BME280;65471;55.908;37.880;2023-05-29T01:07:12;100043.13;;;9.18;77.47
76590;BME280;65471;55.908;37.880;2023-05-29T01:09:41;100049.34;;;9.19;77.54
76590;BME280;65471;55.908;37.880;2023-05-29T01:14:52;100053.25;;;9.23;77.51
76590;BME280;65471;55.908;37.880;2023-05-29T01:20:27;100059.69;;;9.22;78.02
76590;BME280;65471;55.908;37.880;2023-05-29T01:34:54;100064.69;;;9.18;78.28
76590;BME280;65471;55.908;37.880;2023-05-29T01:37:21;100056.41;;;9.20;78.39
76590;BME280;65471;55.908;37.880;2023-05-29T01:39:48;100066.34;;;9.19;78.10
76590;BME280;65471;55.908;37.880;2023-05-29T01:42:15;100070.91;;;9.19;78.01
76590;BME280;65471;55.908;37.880;2023-05-29T01:44:43;100076.94;;;9.21;78.15
76590;BME280;65471;55.908;37.880;2023-05-29T01:47:10;100072.56;;;9.20;78.03
76590;BME280;65471;55.908;37.880;2023-05-29T01:49:37;100069.66;;;9.21;78.18
76590;BME280;65471;55.908;37.880;2023-05-29T01:52:05;100071.31;;;9.22;78.37
76590;BME280;65471;55.908;37.880;2023-05-29T01:54:32;100075.44;;;9.25;78.08
76590;BME280;65471;55.908;37.880;2023-05-29T01:57:00;100072.56;;;9.26;78.50
76590;BME280;65471;55.908;37.880;2023-05-29T01:59:29;100076.88;;;9.27;78.12
76590;BME280;65471;55.908;37.880;2023-05-29T02:01:57;100081.47;;;9.27;78.03
76590;BME280;65471;55.908;37.880;2023-05-29T02:04:24;100070.25;;;9.30;77.94
76590;BME280;65471;55.908;37.880;2023-05-29T02:06:51;100070.88;;;9.32;78.19
76590;BME280;65471;55.908;37.880;2023-05-29T02:09:20;100074.16;;;9.34;78.26
76590;BME280;65471;55.908;37.880;2023-05-29T02:11:49;100069.56;;;9.35;78.03
76590;BME280;65471;55.908;37.880;2023-05-29T02:14:16;100067.72;;;9.35;78.04
76590;BME280;65471;55.908;37.880;2023-05-29T02:16:43;100078.31;;;9.37;78.06
76590;BME280;65471;55.908;37.880;2023-05-29T02:19:12;100085.34;;;9.38;77.87
76590;BME280;65471;55.908;37.880;2023-05-29T02:21:39;100077.06;;;9.39;78.23
76590;BME280;65471;55.908;37.880;2023-05-29T02:24:07;100079.94;;;9.38;78.26
76590;BME280;65471;55.908;37.880;2023-05-29T02:26:34;100085.16;;;9.39;78.05
76590;BME280;65471;55.908;37.880;2023-05-29T02:29:03;100079.53;;;9.41;77.87
76590;BME280;65471;55.908;37.880;2023-05-29T02:31:32;100079.53;;;9.41;78.11
76590;BME280;65471;55.908;37.880;2023-05-29T02:33:59;100083.44;;;9.45;78.01
76590;BME280;65471;55.908;37.880;2023-05-29T02:36:26;100074.91;;;9.48;78.15
76590;BME280;65471;55.908;37.880;2023-05-29T02:38:54;100088.78;;;9.52;77.99
76590;BME280;65471;55.908;37.880;2023-05-29T02:41:21;100080.25;;;9.55;78.05
76590;BME280;65471;55.908;37.880;2023-05-29T02:43:48;100091.47;;;9.58;77.95
76590;BME280;65471;55.908;37.880;2023-05-29T02:46:15;100088.94;;;9.63;77.96
76590;BME280;65471;55.908;37.880;2023-05-29T02:48:42;100084.75;;;9.67;77.98
76590;BME280;65471;55.908;37.880;2023-05-29T02:51:09;100077.03;;;9.71;78.12
76590;BME280;65471;55.908;37.880;2023-05-29T02:53:36;100086.16;;;9.77;77.99
76590;BME280;65471;55.908;37.880;2023-05-29T02:56:03;100087.13;;;9.82;77.60
76590;BME280;65471;55.908;37.880;2023-05-29T02:58:30;100087.09;;;9.89;77.03
76590;BME280;65471;55.908;37.880;2023-05-29T03:00:57;100087.88;;;9.96;76.87
76590;BME280;65471;55.908;37.880;2023-05-29T03:03:25;100090.28;;;10.05;76.51
76590;BME280;65471;55.908;37.880;2023-05-29T03:05:52;100096.50;;;10.12;76.03
76590;BME280;65471;55.908;37.880;2023-05-29T03:08:19;100087.25;;;10.19;75.55
76590;BME280;65471;55.908;37.880;2023-05-29T03:10:46;100091.78;;;10.26;75.02
76590;BME280;65471;55.908;37.880;2023-05-29T03:13:14;100097.34;;;10.31;74.53
76590;BME280;65471;55.908;37.880;2023-05-29T03:15:41;100097.31;;;10.38;74.66
76590;BME280;65471;55.908;37.880;2023-05-29T03:18:08;100104.31;;;10.45;74.03
76590;BME280;65471;55.908;37.880;2023-05-29T03:20:35;100110.25;;;10.54;73.69
76590;BME280;65471;55.908;37.880;2023-05-29T03:23:02;100119.34;;;10.60;73.20
76590;BME280;65471;55.908;37.880;2023-05-29T03:25:29;100110.34;;;10.66;72.64
76590;BME280;65471;55.908;37.880;2023-05-29T03:27:56;100121.94;;;10.73;72.76
76590;BME280;65471;55.908;37.880;2023-05-29T03:30:23;100112.06;;;10.79;72.75
76590;BME280;65471;55.908;37.880;2023-05-29T03:32:50;100124.72;;;10.85;72.45
76590;BME280;65471;55.908;37.880;2023-05-29T03:35:17;100123.81;;;10.91;71.95
76590;BME280;65471;55.908;37.880;2023-05-29T03:37:44;100123.97;;;10.96;72.54
76590;BME280;65471;55.908;37.880;2023-05-29T03:40:11;100122.25;;;11.02;72.59
76590;BME280;65471;55.908;37.880;2023-05-29T03:42:38;100126.38;;;11.04;72.53
76590;BME280;65471;55.908;37.880;2023-05-29T03:45:06;100129.59;;;11.13;72.14
76590;BME280;65471;55.908;37.880;2023-05-29T03:47:33;100122.22;;;11.20;71.70
76590;BME280;65471;55.908;37.880;2023-05-29T03:50:00;100134.38;;;11.30;70.82
76590;BME280;65471;55.908;37.880;2023-05-29T03:52:28;100129.47;;;11.38;70.81
76590;BME280;65471;55.908;37.880;2023-05-29T03:54:55;100128.34;;;11.46;70.38
76590;BME280;65471;55.908;37.880;2023-05-29T03:57:22;100124.25;;;11.55;69.62
76590;BME280;65471;55.908;37.880;2023-05-29T03:59:49;100137.25;;;11.65;69.19
76590;BME280;65471;55.908;37.880;2023-05-29T04:02:16;100137.50;;;11.75;68.98
76590;BME280;65471;55.908;37.880;2023-05-29T04:04:45;100132.00;;;11.82;68.85
76590;BME280;65471;55.908;37.880;2023-05-29T04:07:12;100136.06;;;11.91;68.67
76590;BME280;65471;55.908;37.880;2023-05-29T04:09:39;100135.50;;;12.01;68.59
76590;BME280;65471;55.908;37.880;2023-05-29T04:12:06;100146.63;;;12.12;68.07
76590;BME280;65471;55.908;37.880;2023-05-29T04:14:33;100148.75;;;12.21;68.15
76590;BME280;65471;55.908;37.880;2023-05-29T04:17:00;100149.22;;;12.30;67.51
76590;BME280;65471;55.908;37.880;2023-05-29T04:19:27;100146.06;;;12.45;66.76
76590;BME280;65471;55.908;37.880;2023-05-29T04:21:54;100148.78;;;12.57;66.23
76590;BME280;65471;55.908;37.880;2023-05-29T04:24:21;100139.78;;;12.68;64.95
76590;BME280;65471;55.908;37.880;2023-05-29T04:26:48;100152.53;;;12.80;64.84
76590;BME280;65471;55.908;37.880;2023-05-29T04:29:15;100151.94;;;12.89;64.92
76590;BME280;65471;55.908;37.880;2023-05-29T04:31:42;100148.88;;;12.98;64.55
76590;BME280;65471;55.908;37.880;2023-05-29T04:34:09;100152.03;;;13.06;63.96
76590;BME280;65471;55.908;37.880;2023-05-29T04:36:37;100141.88;;;13.13;64.37
76590;BME280;65471;55.908;37.880;2023-05-29T04:39:07;100149.41;;;13.23;64.33
76590;BME280;65471;55.908;37.880;2023-05-29T04:41:35;100154.81;;;13.35;63.82
76590;BME280;65471;55.908;37.880;2023-05-29T04:44:02;100145.81;;;13.46;62.98
76590;BME280;65471;55.908;37.880;2023-05-29T04:46:30;100148.16;;;13.55;62.73
76590;BME280;65471;55.908;37.880;2023-05-29T04:48:57;100152.59;;;13.61;62.34
76590;BME280;65471;55.908;37.880;2023-05-29T04:51:24;100153.88;;;13.70;61.35
76590;BME280;65471;55.908;37.880;2023-05-29T04:53:51;100147.47;;;13.76;61.86
76590;BME280;65471;55.908;37.880;2023-05-29T04:56:18;100147.56;;;13.81;61.43
76590;BME280;65471;55.908;37.880;2023-05-29T04:58:46;100145.53;;;13.89;60.54
76590;BME280;65471;55.908;37.880;2023-05-29T05:01:14;100153.28;;;13.97;59.59
76590;BME280;65471;55.908;37.880;2023-05-29T05:03:41;100154.75;;;14.05;58.53
76590;BME280;65471;55.908;37.880;2023-05-29T05:06:09;100158.16;;;14.12;58.00
76590;BME280;65471;55.908;37.880;2023-05-29T05:08:36;100154.22;;;14.20;57.86
76590;BME280;65471;55.908;37.880;2023-05-29T05:11:04;100162.78;;;14.28;56.95
76590;BME280;65471;55.908;37.880;2023-05-29T05:13:33;100154.63;;;14.45;56.67
76590;BME280;65471;55.908;37.880;2023-05-29T05:16:00;100158.56;;;14.55;55.27
76590;BME280;65471;55.908;37.880;2023-05-29T05:18:28;100162.97;;;14.73;55.97
76590;BME280;65471;55.908;37.880;2023-05-29T05:20:55;100174.25;;;14.81;55.55
76590;BME280;65471;55.908;37.880;2023-05-29T05:23:22;100157.41;;;14.84;55.67
76590;BME280;65471;55.908;37.880;2023-05-29T05:25:49;100164.09;;;14.94;54.77
76590;BME280;65471;55.908;37.880;2023-05-29T05:28:16;100163.16;;;15.05;54.33
76590;BME280;65471;55.908;37.880;2023-05-29T05:30:43;100168.72;;;15.15;54.46
76590;BME280;65471;55.908;37.880;2023-05-29T05:33:10;100171.06;;;15.29;53.55
76590;BME280;65471;55.908;37.880;2023-05-29T05:35:37;100167.66;;;15.39;53.03
76590;BME280;65471;55.908;37.880;2023-05-29T05:38:04;100167.19;;;15.47;51.74
76590;BME280;65471;55.908;37.880;2023-05-29T05:40:32;100169.47;;;15.55;51.52
76590;BME280;65471;55.908;37.880;2023-05-29T05:42:59;100176.88;;;15.60;51.44
76590;BME280;65471;55.908;37.880;2023-05-29T05:45:26;100169.25;;;15.62;51.59
76590;BME280;65471;55.908;37.880;2023-05-29T05:47:53;100168.25;;;15.68;51.42
76590;BME280;65471;55.908;37.880;2023-05-29T05:50:20;100174.84;;;15.72;50.53
76590;BME280;65471;55.908;37.880;2023-05-29T05:52:47;100171.59;;;15.75;50.85
76590;BME280;65471;55.908;37.880;2023-05-29T05:55:14;100171.94;;;15.79;50.08
76590;BME280;65471;55.908;37.880;2023-05-29T05:57:42;100176.63;;;15.83;48.49
76590;BME280;65471;55.908;37.880;2023-05-29T06:00:09;100178.34;;;15.90;48.08
76590;BME280;65471;55.908;37.880;2023-05-29T06:02:40;100169.09;;;15.96;48.41
76590;BME280;65471;55.908;37.880;2023-05-29T06:05:11;100174.38;;;16.02;46.67
76590;BME280;65471;55.908;37.880;2023-05-29T06:07:38;100186.22;;;16.13;46.54
76590;BME280;65471;55.908;37.880;2023-05-29T06:10:06;100184.56;;;16.17;45.45
76590;BME280;65471;55.908;37.880;2023-05-29T06:12:33;100179.50;;;16.26;44.69
76590;BME280;65471;55.908;37.880;2023-05-29T06:15:01;100188.56;;;16.32;45.20
76590;BME280;65471;55.908;37.880;2023-05-29T06:17:30;100185.84;;;16.37;45.27
76590;BME280;65471;55.908;37.880;2023-05-29T06:19:58;100180.19;;;16.44;43.93
76590;BME280;65471;55.908;37.880;2023-05-29T06:22:25;100178.59;;;16.48;43.94
76590;BME280;65471;55.908;37.880;2023-05-29T06:24:52;100177.00;;;16.57;44.12
76590;BME280;65471;55.908;37.880;2023-05-29T06:27:19;100177.59;;;16.64;43.64
76590;BME280;65471;55.908;37.880;2023-05-29T06:29:46;100180.91;;;16.71;43.62
76590;BME280;65471;55.908;37.880;2023-05-29T06:32:13;100181.78;;;16.77;43.13
76590;BME280;65471;55.908;37.880;2023-05-29T06:34:40;100185.09;;;16.84;42.94
76590;BME280;65471;55.908;37.880;2023-05-29T06:37:07;100190.91;;;16.88;43.15
76590;BME280;65471;55.908;37.880;2023-05-29T06:39:35;100190.63;;;16.89;42.74
76590;BME280;65471;55.908;37.880;2023-05-29T06:42:02;100181.66;;;16.94;42.18
76590;BME280;65471;55.908;37.880;2023-05-29T06:44:30;100187.16;;;16.99;41.49
76590;BME280;65471;55.908;37.880;2023-05-29T06:46:57;100187.47;;;17.08;41.39
76590;BME280;65471;55.908;37.880;2023-05-29T06:49:24;100189.16;;;17.19;42.32
76590;BME280;65471;55.908;37.880;2023-05-29T06:51:51;100187.31;;;17.30;42.96
76590;BME280;65471;55.908;37.880;2023-05-29T06:54:18;100185.44;;;17.36;42.37
76590;BME280;65471;55.908;37.880;2023-05-29T06:56:44;100192.28;;;17.43;41.21
76590;BME280;65471;55.908;37.880;2023-05-29T06:59:27;100198.31;;;17.51;40.52
76590;BME280;65471;55.908;37.880;2023-05-29T07:01:57;100199.72;;;17.58;40.62
76590;BME280;65471;55.908;37.880;2023-05-29T07:04:24;100200.53;;;17.64;40.51
76590;BME280;65471;55.908;37.880;2023-05-29T07:06:51;100199.75;;;17.69;41.60
76590;BME280;65471;55.908;37.880;2023-05-29T07:09:18;100204.16;;;17.75;41.48
76590;BME280;65471;55.908;37.880;2023-05-29T07:11:45;100201.44;;;17.80;41.11
76590;BME280;65471;55.908;37.880;2023-05-29T07:14:12;100200.34;;;17.86;39.69
76590;BME280;65471;55.908;37.880;2023-05-29T07:16:39;100193.22;;;17.85;41.11
76590;BME280;65471;55.908;37.880;2023-05-29T07:19:06;100199.28;;;17.87;41.46
76590;BME280;65471;55.908;37.880;2023-05-29T07:21:45;100197.13;;;17.94;41.04
76590;BME280;65471;55.908;37.880;2023-05-29T07:24:12;100201.50;;;18.01;39.30
76590;BME280;65471;55.908;37.880;2023-05-29T07:26:39;100196.88;;;18.06;39.63
76590;BME280;65471;55.908;37.880;2023-05-29T07:29:06;100192.75;;;18.14;39.44
76590;BME280;65471;55.908;37.880;2023-05-29T07:31:33;100195.25;;;18.16;38.02
76590;BME280;65471;55.908;37.880;2023-05-29T07:34:00;100189.50;;;18.22;37.83
76590;BME280;65471;55.908;37.880;2023-05-29T07:36:29;100193.88;;;18.34;37.53
76590;BME280;65471;55.908;37.880;2023-05-29T07:38:58;100180.72;;;18.41;39.49
76590;BME280;65471;55.908;37.880;2023-05-29T07:41:25;100198.81;;;18.47;38.56
76590;BME280;65471;55.908;37.880;2023-05-29T07:43:55;100193.06;;;18.54;36.43
76590;BME280;65471;55.908;37.880;2023-05-29T07:46:23;100191.69;;;18.61;37.05
76590;BME280;65471;55.908;37.880;2023-05-29T07:48:50;100183.47;;;18.72;38.29
76590;BME280;65471;55.908;37.880;2023-05-29T07:51:17;100186.44;;;18.80;36.90
76590;BME280;65471;55.908;37.880;2023-05-29T07:53:45;100187.31;;;18.91;36.46
76590;BME280;65471;55.908;37.880;2023-05-29T07:56:13;100193.56;;;19.02;36.01
76590;BME280;65471;55.908;37.880;2023-05-29T07:58:40;100193.00;;;19.10;36.11
76590;BME280;65471;55.908;37.880;2023-05-29T08:01:08;100189.97;;;19.07;35.89
76590;BME280;65471;55.908;37.880;2023-05-29T08:03:35;100178.16;;;19.17;36.59
76590;BME280;65471;55.908;37.880;2023-05-29T08:06:02;100173.78;;;19.21;36.05
76590;BME280;65471;55.908;37.880;2023-05-29T08:08:29;100182.78;;;19.31;36.31
76590;BME280;65471;55.908;37.880;2023-05-29T08:10:57;100188.22;;;19.42;36.76
76590;BME280;65471;55.908;37.880;2023-05-29T08:13:24;100181.59;;;19.48;34.83
76590;BME280;65471;55.908;37.880;2023-05-29T08:15:51;100183.19;;;19.59;34.82
76590;BME280;65471;55.908;37.880;2023-05-29T08:18:18;100190.53;;;19.79;36.41
76590;BME280;65471;55.908;37.880;2023-05-29T08:20:45;100179.75;;;19.93;35.34
76590;BME280;65471;55.908;37.880;2023-05-29T08:23:12;100193.16;;;20.05;34.31
76590;BME280;65471;55.908;37.880;2023-05-29T08:25:39;100183.75;;;20.11;34.43
76590;BME280;65471;55.908;37.880;2023-05-29T08:28:06;100189.94;;;20.27;36.35
76590;BME280;65471;55.908;37.880;2023-05-29T08:30:32;100188.44;;;20.45;35.71
76590;BME280;65471;55.908;37.880;2023-05-29T08:33:00;100180.59;;;20.63;34.10
76590;BME280;65471;55.908;37.880;2023-05-29T08:35:27;100198.66;;;20.74;33.74
76590;BME280;65471;55.908;37.880;2023-05-29T08:37:54;100185.78;;;20.69;33.37
76590;BME280;65471;55.908;37.880;2023-05-29T08:40:21;100171.69;;;20.76;34.68
76590;BME280;65471;55.908;37.880;2023-05-29T08:43:03;100185.09;;;20.83;35.19
76590;BME280;65471;55.908;37.880;2023-05-29T08:45:33;100176.69;;;20.98;35.47
76590;BME280;65471;55.908;37.880;2023-05-29T08:48:01;100172.44;;;21.11;36.10
76590;BME280;65471;55.908;37.880;2023-05-29T08:50:29;100170.38;;;21.22;36.23
76590;BME280;65471;55.908;37.880;2023-05-29T08:52:56;100172.53;;;21.25;35.49
76590;BME280;65471;55.908;37.880;2023-05-29T08:55:24;100176.13;;;21.45;35.06
76590;BME280;65471;55.908;37.880;2023-05-29T08:57:51;100167.88;;;21.45;34.54
76590;BME280;65471;55.908;37.880;2023-05-29T09:00:19;100167.81;;;21.31;33.65
76590;BME280;65471;55.908;37.880;2023-05-29T09:02:46;100162.31;;;21.31;33.50
76590;BME280;65471;55.908;37.880;2023-05-29T09:05:13;100176.69;;;21.47;33.60
76590;BME280;65471;55.908;37.880;2023-05-29T09:07:40;100165.06;;;21.50;32.63
76590;BME280;65471;55.908;37.880;2023-05-29T09:10:08;100165.25;;;21.59;32.74
76590;BME280;65471;55.908;37.880;2023-05-29T09:12:36;100164.97;;;21.60;32.39
76590;BME280;65471;55.908;37.880;2023-05-29T09:15:15;100169.06;;;21.63;31.86
76590;BME280;65471;55.908;37.880;2023-05-29T09:17:45;100166.09;;;21.59;32.11
76590;BME280;65471;55.908;37.880;2023-05-29T09:20:17;100161.88;;;21.43;31.73
76590;BME280;65471;55.908;37.880;2023-05-29T09:22:58;100151.59;;;21.29;29.92
76590;BME280;65471;55.908;37.880;2023-05-29T09:25:29;100160.25;;;21.17;31.44
76590;BME280;65471;55.908;37.880;2023-05-29T09:28:03;100160.66;;;21.06;31.19
76590;BME280;65471;55.908;37.880;2023-05-29T09:34:01;100144.50;;;20.75;33.74
76590;BME280;65471;55.908;37.880;2023-05-29T09:36:28;100143.50;;;20.60;34.12
76590;BME280;65471;55.908;37.880;2023-05-29T09:38:55;100155.59;;;20.59;33.17
76590;BME280;65471;55.908;37.880;2023-05-29T09:41:44;100144.09;;;20.57;34.15
76590;BME280;65471;55.908;37.880;2023-05-29T09:44:12;100146.88;;;20.52;33.20
76590;BME280;65471;55.908;37.880;2023-05-29T09:46:41;100141.16;;;20.48;32.45
76590;BME280;65471;55.908;37.880;2023-05-29T09:49:12;100142.41;;;20.32;32.39
76590;BME280;65471;55.908;37.880;2023-05-29T09:51:40;100142.75;;;20.25;33.51
76590;BME280;65471;55.908;37.880;2023-05-29T09:54:16;100136.19;;;20.21;34.19
76590;BME280;65471;55.908;37.880;2023-05-29T09:56:44;100132.59;;;20.21;34.54
76590;BME280;65471;55.908;37.880;2023-05-29T09:59:13;100132.88;;;20.24;34.27
76590;BME280;65471;55.908;37.880;2023-05-29T10:01:42;100128.06;;;20.40;33.10
76590;BME280;65471;55.908;37.880;2023-05-29T10:04:13;100127.03;;;20.60;32.96
76590;BME280;65471;55.908;37.880;2023-05-29T10:06:46;100129.84;;;20.84;33.77
76590;BME280;65471;55.908;37.880;2023-05-29T10:09:17;100131.19;;;20.87;33.80
76590;BME280;65471;55.908;37.880;2023-05-29T10:11:47;100123.22;;;20.85;32.75
76590;BME280;65471;55.908;37.880;2023-05-29T10:14:18;100119.94;;;20.83;33.15
76590;BME280;65471;55.908;37.880;2023-05-29T10:16:50;100121.38;;;20.81;33.26
76590;BME280;65471;55.908;37.880;2023-05-29T10:19:25;100121.00;;;20.88;32.77
76590;BME280;65471;55.908;37.880;2023-05-29T10:21:54;100125.34;;;20.94;32.14
76590;BME280;65471;55.908;37.880;2023-05-29T10:24:22;100118.72;;;20.95;34.39
76590;BME280;65471;55.908;37.880;2023-05-29T10:26:52;100121.38;;;21.05;34.30
76590;BME280;65471;55.908;37.880;2023-05-29T10:29:42;100112.41;;;21.18;32.65
76590;BME280;65471;55.908;37.880;2023-05-29T10:32:24;100114.09;;;21.14;31.61
76590;BME280;65471;55.908;37.880;2023-05-29T10:35:14;100102.59;;;21.12;32.38
76590;BME280;65471;55.908;37.880;2023-05-29T10:37:47;100110.38;;;21.05;33.84
76590;BME280;65471;55.908;37.880;2023-05-29T10:40:23;100105.53;;;21.16;33.67
76590;BME280;65471;55.908;37.880;2023-05-29T10:42:51;100107.78;;;21.14;32.91
76590;BME280;65471;55.908;37.880;2023-05-29T10:47:55;100095.66;;;20.91;33.76
76590;BME280;65471;55.908;37.880;2023-05-29T10:50:45;100095.75;;;20.85;35.02
76590;BME280;65471;55.908;37.880;2023-05-29T10:53:17;100097.28;;;20.97;35.40
76590;BME280;65471;55.908;37.880;2023-05-29T10:55:45;100100.88;;;21.16;34.87
76590;BME280;65471;55.908;37.880;2023-05-29T10:58:15;100100.81;;;21.21;33.60
76590;BME280;65471;55.908;37.880;2023-05-29T11:00:45;100098.94;;;21.17;33.34
76590;BME280;65471;55.908;37.880;2023-05-29T11:03:19;100100.34;;;21.33;33.32
76590;BME280;65471;55.908;37.880;2023-05-29T11:05:59;100085.69;;;21.62;33.85
76590;BME280;65471;55.908;37.880;2023-05-29T11:11:29;100086.81;;;22.60;33.61
76590;BME280;65471;55.908;37.880;2023-05-29T11:14:01;100092.53;;;22.91;33.38
76590;BME280;65471;55.908;37.880;2023-05-29T11:18:57;100083.44;;;23.69;28.71
76590;BME280;65471;55.908;37.880;2023-05-29T11:21:37;100082.19;;;23.75;29.32
76590;BME280;65471;55.908;37.880;2023-05-29T11:26:47;100087.69;;;23.89;29.34
76590;BME280;65471;55.908;37.880;2023-05-29T11:29:14;100079.94;;;24.86;28.09
76590;BME280;65471;55.908;37.880;2023-05-29T11:31:41;100065.00;;;26.83;27.32
76590;BME280;65471;55.908;37.880;2023-05-29T11:34:14;100068.28;;;28.70;25.02
76590;BME280;65471;55.908;37.880;2023-05-29T11:36:42;100070.72;;;30.02;23.89
76590;BME280;65471;55.908;37.880;2023-05-29T11:39:10;100071.09;;;31.12;23.25
76590;BME280;65471;55.908;37.880;2023-05-29T11:41:37;100065.38;;;31.80;22.89
76590;BME280;65471;55.908;37.880;2023-05-29T11:44:04;100059.13;;;32.52;21.78
76590;BME280;65471;55.908;37.880;2023-05-29T11:46:34;100060.00;;;33.07;20.64
76590;BME280;65471;55.908;37.880;2023-05-29T11:49:01;100056.84;;;33.38;20.23
76590;BME280;65471;55.908;37.880;2023-05-29T11:51:28;100042.84;;;33.12;20.88
76590;BME280;65471;55.908;37.880;2023-05-29T11:53:55;100051.69;;;31.75;21.23
76590;BME280;65471;55.908;37.880;2023-05-29T11:56:26;100050.63;;;29.97;22.21
76590;BME280;65471;55.908;37.880;2023-05-29T11:58:54;100041.19;;;28.09;22.82
76590;BME280;65471;55.908;37.880;2023-05-29T12:01:24;100039.38;;;27.37;23.93
76590;BME280;65471;55.908;37.880;2023-05-29T12:03:52;100038.69;;;27.40;24.49
76590;BME280;65471;55.908;37.880;2023-05-29T12:06:32;100034.47;;;26.83;25.03
76590;BME280;65471;55.908;37.880;2023-05-29T12:09:00;100030.16;;;26.64;24.95
76590;BME280;65471;55.908;37.880;2023-05-29T12:11:28;100032.97;;;26.08;26.06
76590;BME280;65471;55.908;37.880;2023-05-29T12:13:57;100030.53;;;25.28;27.56
76590;BME280;65471;55.908;37.880;2023-05-29T12:16:24;100028.13;;;24.60;28.99
76590;BME280;65471;55.908;37.880;2023-05-29T12:18:53;100031.31;;;23.90;30.00
76590;BME280;65471;55.908;37.880;2023-05-29T12:21:21;100027.44;;;23.32;29.95
76590;BME280;65471;55.908;37.880;2023-05-29T12:23:51;100026.81;;;22.71;30.56
76590;BME280;65471;55.908;37.880;2023-05-29T12:26:32;100024.75;;;22.49;31.53
76590;BME280;65471;55.908;37.880;2023-05-29T12:29:03;100022.75;;;22.21;32.88
76590;BME280;65471;55.908;37.880;2023-05-29T12:31:31;100023.44;;;21.99;32.15
76590;BME280;65471;55.908;37.880;2023-05-29T12:34:02;100031.59;;;21.71;31.75
76590;BME280;65471;55.908;37.880;2023-05-29T12:36:34;100018.31;;;21.60;30.68
76590;BME280;65471;55.908;37.880;2023-05-29T12:39:05;100024.50;;;21.51;31.08
76590;BME280;65471;55.908;37.880;2023-05-29T12:41:36;100017.56;;;21.35;31.90
76590;BME280;65471;55.908;37.880;2023-05-29T12:44:05;100013.47;;;21.13;32.35
76590;BME280;65471;55.908;37.880;2023-05-29T12:49:18;100027.66;;;21.01;31.45
76590;BME280;65471;55.908;37.880;2023-05-29T12:51:47;100026.31;;;20.99;30.43
76590;BME280;65471;55.908;37.880;2023-05-29T12:54:15;100032.03;;;21.02;29.98
76590;BME280;65471;55.908;37.880;2023-05-29T12:56:43;100020.28;;;20.97;30.09
76590;BME280;65471;55.908;37.880;2023-05-29T12:59:10;100022.50;;;20.95;30.82
76590;BME280;65471;55.908;37.880;2023-05-29T13:01:38;100010.47;;;20.91;31.83
76590;BME280;65471;55.908;37.880;2023-05-29T13:07:29;100015.91;;;21.15;32.79
76590;BME280;65471;55.908;37.880;2023-05-29T13:09:59;100015.59;;;20.97;34.53
76590;BME280;65471;55.908;37.880;2023-05-29T13:12:26;100013.59;;;20.84;34.98
76590;BME280;65471;55.908;37.880;2023-05-29T13:15:13;100023.66;;;20.69;34.64
76590;BME280;65471;55.908;37.880;2023-05-29T13:21:41;100017.59;;;20.73;32.71
76590;BME280;65471;55.908;37.880;2023-05-29T13:24:33;100016.22;;;20.70;33.00
76590;BME280;65471;55.908;37.880;2023-05-29T13:27:18;100015.50;;;20.59;33.92
76590;BME280;65471;55.908;37.880;2023-05-29T13:30:05;100014.00;;;20.48;35.35
76590;BME280;65471;55.908;37.880;2023-05-29T13:32:32;100019.66;;;20.32;34.82